Latest Weather Observations for Low Isles

IDQ60801

Issued at 5:02 pm EST Saturday 18 April 2015 (issued every 30 minutes, with the page automatically refreshed every 10 minutes)

About weather observations | Map of weather stations | Latest weather observations for QLD | Other Formats
Station Details ID: 031037 Name: LOW ISLES LIGHTHOUSE Lat: -16.38 Lon: 145.56 Height: 2.9 m
Data from the previous 72 hours. | See also: Recent months at Low Isles
Date/Time
EST
Temp
°C
App
Temp
°C
Dew
Point
Rel
Hum
%
Delta-T
°C
Wind Press
QNH
hPa
Press
MSL
hPa
Rain
since 9 am
mm
Dir
 
Spd
km/h
Gust
km/h
Spd
kts
Gust
kts
18/05:00pm 26.2 25.6 24.4 90 1.2 SSE 35 41 19 22 1012.2 - 3.8
18/04:30pm 25.9 24.5 24.3 91 1.1 SSE 39 44 21 24 1012.0 - 3.8
18/04:00pm 25.4 23.8 24.0 92 1.0 SSE 39 46 21 25 1011.7 - 3.8
18/03:30pm 25.8 25.0 24.0 90 1.2 SSE 35 44 19 24 1011.8 - 1.6
18/03:00pm 26.4 25.7 24.1 87 1.6 SSE 35 41 19 22 1012.0 1011.9 0.8
18/02:30pm 26.7 26.7 24.4 87 1.6 SE 32 39 17 21 1012.1 - 0.8
18/02:00pm 27.7 28.4 24.3 82 2.4 SE 28 32 15 17 1012.5 - 0.6
18/01:30pm 27.5 27.6 24.5 84 2.1 SSE 32 35 17 19 1012.9 - 0.6
18/01:00pm 28.2 29.1 24.6 81 2.5 SSE 28 33 15 18 1013.1 - 0.2
18/12:30pm 28.6 29.4 24.4 78 2.9 SE 28 35 15 19 1013.5 - 0.2
18/12:00pm 28.3 29.1 25.1 83 2.2 SE 30 35 16 19 1013.6 1013.5 0.0
18/11:30am 27.8 28.7 24.6 83 2.2 SE 28 33 15 18 1014.2 - 0.0
18/11:00am 26.7 27.3 24.2 86 1.7 SSE 28 33 15 18 1014.7 - 0.0
18/10:30am 26.2 25.8 23.7 86 1.7 SSE 32 35 17 19 1015.1 - 0.0
18/10:00am 27.0 27.2 24.1 84 2.0 SSE 30 35 16 19 1015.2 - 0.0
18/09:30am 26.4 26.4 23.7 85 1.9 SSE 30 33 16 18 1015.0 - 0.0
18/09:00am 26.0 25.7 23.9 88 1.4 SSE 32 35 17 19 1014.9 1014.8 8.2
18/08:30am 26.0 25.7 24.2 90 1.2 SSE 33 37 18 20 1014.4 - 8.2
18/08:00am 25.8 25.0 24.0 90 1.2 SE 35 41 19 22 1013.9 - 8.2
18/07:54am 25.9 24.8 24.1 90 1.2 SE 37 41 20 22 1013.7 - 8.2
18/07:30am 25.1 25.2 23.9 93 0.8 ESE 30 43 16 23 1013.3 - 8.2
18/07:14am 24.8 23.7 23.4 92 1.0 ESE 35 54 19 29 1013.5 - 8.0
18/07:00am 25.6 25.1 23.8 90 1.2 ESE 33 43 18 23 1013.4 - 6.6
18/06:30am 25.8 25.0 24.0 90 1.2 SSE 35 41 19 22 1013.0 - 6.0
18/06:00am 25.3 24.0 23.2 88 1.4 SSE 35 41 19 22 1012.7 1012.6 6.0
18/05:30am 25.4 24.9 23.5 89 1.3 SSE 32 37 17 20 1012.5 - 5.8
18/05:00am 25.2 24.2 23.6 91 1.1 S 35 39 19 21 1012.3 - 5.8
18/04:30am 24.8 23.0 23.0 90 1.2 SSE 37 44 20 24 1012.3 - 5.8
18/04:00am 24.7 22.5 22.9 90 1.2 SSE 39 48 21 26 1012.3 - 5.0
18/03:30am 24.9 24.0 22.8 88 1.4 SSE 32 39 17 21 1012.2 - 2.0
18/03:00am 25.8 24.3 22.7 83 2.1 S 35 39 19 21 1012.3 1012.2 0.8
18/02:30am 25.6 24.5 22.9 85 1.8 S 33 39 18 21 1012.5 - 0.8
18/02:00am 26.2 25.2 22.7 81 2.4 SSE 32 37 17 20 1012.6 - 0.8
18/01:30am 26.2 25.0 22.7 81 2.4 S 33 39 18 21 1013.0 - 0.8
18/01:00am 26.6 25.7 22.9 80 2.5 S 32 37 17 20 1013.7 - 0.8
18/12:30am 26.7 25.9 23.0 80 2.5 S 32 37 17 20 1014.1 - 0.8
18/12:00am 26.7 25.9 23.0 80 2.5 S 32 35 17 19 1014.4 1014.3 0.8
 
Date/Time
EST
Temp
°C
App
Temp
°C
Dew
Point
Rel
Hum
%
Delta-T
°C
Wind Press
QNH
hPa
Press
MSL
hPa
Rain
since 9 am
mm
Dir
 
Spd
km/h
Gust
km/h
Spd
kts
Gust
kts
17/11:30pm 26.7 25.7 23.0 80 2.5 SSE 33 39 18 21 1014.5 - 0.8
17/11:00pm 26.3 25.3 23.0 82 2.2 S 33 37 18 20 1014.6 - 0.8
17/10:30pm 26.6 25.3 23.1 81 2.4 SSE 35 46 19 25 1014.7 - 0.6
17/10:06pm 27.1 24.9 22.9 78 2.9 SSE 39 43 21 23 1014.7 - 0.6
17/10:00pm 27.3 25.0 23.3 79 2.7 SE 41 50 22 27 1014.6 - 0.6
17/09:30pm 27.2 25.2 22.6 76 3.1 SE 37 46 20 25 1014.5 - 0.6
17/09:00pm 26.7 25.6 22.5 78 2.8 SSE 32 41 17 22 1014.3 1014.2 0.6
17/08:30pm 27.1 24.3 22.5 76 3.1 SE 41 46 22 25 1014.2 - 0.6
17/08:00pm 27.4 26.1 23.2 78 2.9 SE 35 44 19 24 1013.8 - 0.6
17/07:30pm 27.3 24.4 22.3 74 3.4 SE 41 50 22 27 1013.5 - 0.6
17/07:00pm 27.1 26.2 23.1 79 2.7 SE 33 43 18 23 1013.1 - 0.6
17/06:30pm 26.8 24.0 21.8 74 3.3 SE 39 48 21 26 1013.0 - 0.6
17/06:00pm 26.8 24.8 22.6 78 2.8 SE 37 44 20 24 1012.8 1012.7 0.6
17/05:30pm 26.3 22.8 22.2 78 2.8 SE 44 52 24 28 1012.8 - 0.6
17/05:00pm 25.7 22.4 22.6 83 2.1 SE 44 56 24 30 1012.7 - 0.6
17/04:30pm 24.9 21.8 22.0 84 1.9 SE 41 50 22 27 1012.8 - 0.6
17/04:00pm 27.0 24.3 22.6 77 3.0 ESE 41 59 22 32 1012.7 - 0.4
17/03:59pm 27.3 24.8 22.3 74 3.4 SE 39 59 21 32 1012.6 - 0.4
17/03:30pm 26.6 24.3 22.0 76 3.1 SE 37 46 20 25 1012.6 - 0.4
17/03:00pm 26.6 24.9 22.4 78 2.8 ESE 35 - 19 - - 1012.6 0.4
17/02:56pm 26.3 25.2 22.4 79 2.6 SE 32 50 17 27 1012.7 - 0.4
17/02:30pm 25.8 24.9 22.9 84 2.0 SE 32 39 17 21 1013.0 - 0.4
17/02:00pm 26.8 25.9 22.8 79 2.7 SE 32 39 17 21 1013.4 - 0.4
17/01:30pm 25.9 23.5 22.6 82 2.2 ESE 39 46 21 25 1013.8 - 0.4
17/01:00pm 25.9 24.4 22.8 83 2.1 ESE 35 48 19 26 1014.3 - 0.4
17/12:30pm 27.0 24.2 22.4 76 3.1 ESE 41 52 22 28 1014.3 - 0.4
17/12:00pm 26.9 24.2 22.7 78 2.8 ESE 41 56 22 30 1014.5 1014.4 0.4
17/11:30am 27.2 24.8 23.2 79 2.7 ESE 41 48 22 26 1014.9 - 0.4
17/11:25am 27.3 25.3 23.3 79 2.7 ESE 39 46 21 25 1014.9 - 0.4
17/11:00am 26.5 26.1 23.0 81 2.4 SE 30 35 16 19 1015.6 - 0.2
17/10:30am 27.4 24.3 22.6 75 3.2 SE 43 50 23 27 1016.0 - 0.0
17/10:00am 28.2 26.7 22.0 69 4.2 SE 33 41 18 22 1016.1 - 0.0
17/09:30am 27.7 25.6 22.4 73 3.6 SE 37 43 20 23 1016.2 - 0.0
17/09:00am 27.2 24.7 21.7 72 3.7 SE 37 46 20 25 1016.2 1016.1 4.4
17/08:30am 26.8 25.0 22.2 76 3.1 ESE 35 44 19 24 1016.0 - 4.4
17/08:00am 26.8 24.9 22.0 75 3.2 ESE 35 44 19 24 1015.9 - 4.4
17/07:30am 26.5 23.8 21.3 73 3.4 ESE 37 46 20 25 1015.6 - 4.4
17/07:00am 26.5 24.3 21.5 74 3.3 ESE 35 46 19 25 1015.3 - 4.4
17/06:30am 26.3 24.1 21.5 75 3.2 ESE 35 46 19 25 1014.9 - 4.4
17/06:00am 26.3 23.6 21.3 74 3.3 ESE 37 46 20 25 1014.6 1014.5 4.4
17/05:30am 26.4 23.8 21.4 74 3.3 ESE 37 52 20 28 1014.2 - 4.4
17/05:00am 26.3 23.0 21.5 75 3.2 ESE 41 46 22 25 1013.8 - 4.4
17/04:30am 26.0 24.6 22.3 80 2.5 ESE 33 43 18 23 1013.6 - 4.4
17/04:00am 26.2 24.0 22.1 78 2.7 ESE 37 46 20 25 1013.6 - 4.2
17/03:30am 26.1 24.0 22.4 80 2.5 ESE 37 48 20 26 1013.7 - 4.2
17/03:00am 25.9 23.0 21.6 77 2.9 SE 39 46 21 25 1013.8 1013.7 4.2
17/02:30am 25.5 22.6 21.6 79 2.6 ESE 39 50 21 27 1014.1 - 4.2
17/02:00am 25.2 23.1 22.3 84 1.9 ESE 37 46 20 25 1014.5 - 4.2
17/01:30am 26.2 24.1 22.3 79 2.6 SE 37 44 20 24 1015.0 - 3.4
17/01:00am 25.9 25.1 23.0 84 2.0 SE 32 41 17 22 1015.5 - 3.4
17/12:30am 26.1 24.6 22.8 82 2.2 SE 35 43 19 23 1015.9 - 3.4
17/12:00am 26.1 24.7 23.0 83 2.1 SE 35 43 19 23 1016.3 1016.2 3.4
 
Date/Time
EST
Temp
°C
App
Temp
°C
Dew
Point
Rel
Hum
%
Delta-T
°C
Wind Press
QNH
hPa
Press
MSL
hPa
Rain
since 9 am
mm
Dir
 
Spd
km/h
Gust
km/h
Spd
kts
Gust
kts
16/11:30pm 26.0 23.9 22.3 80 2.5 SE 37 44 20 24 1016.7 - 3.4
16/11:00pm 25.8 23.8 22.5 82 2.2 SE 37 44 20 24 1016.9 - 3.4
16/10:30pm 25.1 24.8 23.2 89 1.3 SE 30 35 16 19 1017.2 - 3.4
16/10:15pm 24.2 22.1 21.7 86 1.7 ESE 35 54 19 29 1017.4 - 3.4
16/10:00pm 26.1 24.4 22.4 80 2.5 ESE 35 44 19 24 1017.3 - 1.4
16/09:30pm 25.2 24.6 22.7 86 1.7 ESE 30 43 16 23 1017.4 - 1.4
16/09:13pm 26.8 25.5 22.4 77 3.0 ESE 33 56 18 30 1017.3 - 0.2
16/09:00pm 26.8 25.4 22.2 76 3.1 SE 33 41 18 22 1017.2 1017.1 0.2
16/08:30pm 26.4 25.0 22.0 77 2.9 SE 32 37 17 20 1016.9 - 0.2
16/08:11pm 26.8 24.6 22.2 76 3.1 SE 37 59 20 32 1016.8 - 0.2
16/08:00pm 27.4 25.9 22.1 73 3.6 ESE 33 41 18 22 1016.6 - 0.2
16/07:30pm 27.3 24.8 21.6 71 3.8 SE 37 48 20 26 1016.3 - 0.2
16/07:00pm 26.7 22.8 21.2 72 3.6 ESE 43 50 23 27 1015.9 - 0.2
16/06:30pm 25.7 24.3 22.0 80 2.5 SE 32 43 17 23 1015.8 - 0.2
16/06:21pm 26.3 26.1 22.8 81 2.4 SE 28 59 15 32 1015.8 - 0.0
16/06:00pm 25.7 22.2 22.2 81 2.3 SE 44 56 24 30 1015.9 1015.8 0.0
16/05:52pm 27.0 25.9 22.8 78 2.8 SE 33 56 18 30 1015.7 - 0.0
16/05:30pm 27.6 25.6 21.9 71 3.8 ESE 35 43 19 23 1015.5 - 0.0
16/05:00pm 27.8 26.2 21.8 70 4.0 ESE 33 44 18 24 1015.3 - 0.0
16/04:30pm 28.1 24.8 20.9 65 4.8 SE 39 48 21 26 1015.1 - 0.0
16/04:00pm 28.6 26.1 21.6 66 4.7 SE 37 46 20 25 1015.0 - 0.0
16/03:30pm 29.4 26.9 21.6 63 5.2 ESE 37 46 20 25 1014.9 - 0.0
16/03:00pm 29.6 26.6 21.3 61 5.5 ESE 39 48 21 26 1014.8 1014.7 0.0
16/02:30pm 29.6 26.9 21.3 61 5.6 ESE 37 50 20 27 1015.1 - 0.0
16/02:00pm 29.8 28.1 22.5 65 5.0 ESE 35 43 19 23 1015.3 - 0.0
16/01:30pm 30.4 27.7 22.0 60 5.7 ESE 39 46 21 25 1015.7 - 0.0
16/01:00pm 29.9 26.4 21.8 62 5.5 SE 43 50 23 27 1016.0 - 0.0
16/12:30pm 30.0 26.7 22.2 63 5.3 SE 43 50 23 27 1016.2 - 0.0
16/12:00pm 29.6 26.6 22.1 64 5.1 SE 41 50 22 27 1016.7 1016.6 0.0
16/11:30am 29.2 25.7 21.9 64 4.9 SE 43 54 23 29 1017.2 - 0.0
16/11:00am 28.9 25.4 21.9 66 4.7 SE 43 52 23 28 1017.6 - 0.0
16/10:30am 28.8 26.0 22.5 68 4.3 SE 41 50 22 27 1018.0 - 0.0
16/10:00am 28.3 24.8 21.8 68 4.4 SE 43 52 23 28 1018.1 - 0.0
16/09:30am 27.9 24.7 22.4 72 3.7 SE 43 52 23 28 1018.2 - 0.0
16/09:00am 27.5 25.0 22.4 73 3.4 SE 39 48 21 26 1018.0 1017.9 3.0
16/08:30am 27.0 23.8 21.7 73 3.5 SE 41 52 22 28 1017.9 - 3.0
16/08:00am 26.8 23.8 21.3 72 3.7 SE 39 48 21 26 1017.9 - 3.0
16/07:30am 26.6 22.7 21.1 72 3.6 ESE 43 52 23 28 1017.4 - 3.0
16/07:00am 26.7 24.0 21.9 75 3.2 ESE 39 50 21 27 1017.2 - 3.0
16/06:30am 26.5 24.0 21.7 75 3.2 ESE 37 48 20 26 1016.9 - 3.0
16/06:00am 26.5 23.9 21.5 74 3.3 ESE 37 44 20 24 1016.6 1016.5 3.0
16/05:30am 26.6 23.8 21.8 75 3.2 ESE 39 48 21 26 1016.4 - 3.0
16/05:00am 26.5 24.2 21.3 73 3.4 ESE 35 46 19 25 1016.4 - 3.0
16/04:30am 26.5 24.6 22.1 77 3.0 ESE 35 43 19 23 1016.2 - 3.0
16/04:00am 26.4 23.7 21.2 73 3.4 ESE 37 46 20 25 1016.3 - 3.0
16/03:30am 26.3 24.0 21.3 74 3.3 ESE 35 43 19 23 1016.4 - 3.0
16/03:00am 26.3 23.6 21.3 74 3.3 ESE 37 46 20 25 1016.5 1016.4 3.0
16/02:30am 26.1 23.8 21.3 75 3.2 ESE 35 46 19 25 1016.7 - 2.8
16/02:00am 26.0 23.6 21.0 74 3.3 SE 35 44 19 24 1017.0 - 2.8
16/01:30am 26.0 23.8 21.4 76 3.1 SE 35 43 19 23 1017.4 - 2.8
16/01:00am 26.0 23.7 21.2 75 3.2 SE 35 44 19 24 1017.7 - 2.8
16/12:30am 25.9 23.2 21.3 76 3.0 SE 37 46 20 25 1018.1 - 2.8
16/12:00am 25.8 23.7 21.7 78 2.7 SE 35 46 19 25 1018.6 1018.5 2.8
 
Date/Time
EST
Temp
°C
App
Temp
°C
Dew
Point
Rel
Hum
%
Delta-T
°C
Wind Press
QNH
hPa
Press
MSL
hPa
Rain
since 9 am
mm
Dir
 
Spd
km/h
Gust
km/h
Spd
kts
Gust
kts
15/11:30pm 25.6 23.7 22.7 84 2.0 SE 37 46 20 25 1018.8 - 2.8
15/11:00pm 25.8 24.4 22.9 84 2.0 SSE 35 43 19 23 1018.9 - 2.6
15/10:30pm 25.6 23.2 22.5 83 2.1 SSE 39 44 21 24 1019.0 - 2.6
15/10:00pm 26.2 24.9 23.1 83 2.1 SE 35 46 19 25 1018.7 - 2.6
15/09:30pm 25.2 21.5 22.5 85 1.8 SSE 46 56 25 30 1018.6 - 2.6
15/09:03pm 24.7 24.5 22.8 89 1.3 S 28 46 15 25 1018.6 - 2.6
15/09:00pm 24.5 23.4 22.4 88 1.4 S 32 46 17 25 1018.7 1018.6 2.6
15/08:30pm 25.5 24.4 22.8 85 1.8 SSE 33 39 18 21 1018.3 - 0.8
15/08:00pm 25.9 24.0 22.8 83 2.1 SSE 37 44 20 24 1018.2 - 0.8
15/07:30pm 26.2 24.4 22.9 82 2.2 SSE 37 44 20 24 1017.7 - 0.8
15/07:00pm 26.7 25.3 23.0 80 2.5 SSE 35 43 19 23 1017.3 - 0.8
15/06:30pm 26.7 24.8 22.8 79 2.6 SE 37 46 20 25 1016.9 - 0.8
15/06:10pm 26.7 25.1 23.2 81 2.4 SE 37 44 20 24 1016.8 - 0.8
15/06:00pm 26.2 23.9 22.7 81 2.4 SSE 39 46 21 25 1016.7 1016.6 0.8
15/05:56pm 26.3 23.2 22.6 80 2.5 SSE 43 46 23 25 1016.6 - 0.8
15/05:30pm 27.1 25.0 22.3 75 3.2 SE 37 46 20 25 1016.6 - 0.8

Other Formats:

Comma delimited format used in spreadsheet applications
http://www.bom.gov.au/fwo/IDQ60801/IDQ60801.94285.axf

JavaScript Object Notation format (JSON) in row-major order
http://www.bom.gov.au/fwo/IDQ60801/IDQ60801.94285.json